Time;durP1;ratioP1;P1;durP2;ratioP2;P2;SDS_P1;SDS_P2;PMS_P1;PMS_P2;Temp;Humidity;BMP_temperature;BMP_pressure;BME280_temperature;BME280_humidity;BME280_pressure;Samples;Min_cycle;Max_cycle;Signal;HPM_P1;HPM_P2
2024/01/29 00:02:15;;;;;;;3.47;1.48;;;;;;;2.93;74.36;102726.50;5023035;28;20464;-62
2024/01/29 00:04:40;;;;;;;4.25;1.05;;;;;;;2.90;74.30;102728.31;5022306;28;20610;-62
2024/01/29 00:07:07;;;;;;;5.68;1.00;;;;;;;2.82;74.77;102735.41;5022524;28;20806;-63
2024/01/29 00:09:32;;;;;;;5.80;1.40;;;;;;;2.81;74.77;102729.44;5024248;28;20033;-63
2024/01/29 00:11:58;;;;;;;2.33;0.80;;;;;;;2.82;74.46;102718.25;5031608;28;20040;-62
2024/01/29 00:14:23;;;;;;;2.15;0.85;;;;;;;2.78;74.73;102721.78;5040752;28;20040;-63
2024/01/29 00:16:48;;;;;;;2.30;1.15;;;;;;;2.93;73.25;102718.78;5021031;28;20033;-62
2024/01/29 00:19:14;;;;;;;6.43;1.83;;;;;;;2.76;74.30;102726.13;5026224;28;20405;-63
2024/01/29 00:21:40;;;;;;;8.90;2.58;;;;;;;2.35;76.49;102728.88;5021310;28;20629;-62
2024/01/29 00:24:05;;;;;;;7.20;2.25;;;;;;;2.27;76.09;102729.91;5021411;28;20051;-62
2024/01/29 00:26:31;;;;;;;5.07;1.35;;;;;;;2.39;75.66;102730.47;5030149;28;20141;-62
2024/01/29 00:28:56;;;;;;;4.32;1.00;;;;;;;2.50;75.44;102720.78;5022056;28;20283;-62
2024/01/29 00:31:22;;;;;;;5.68;1.67;;;;;;;2.28;76.43;102729.03;5022175;28;20076;-63
2024/01/29 00:33:48;;;;;;;2.85;1.08;;;;;;;2.36;75.61;102722.84;5021163;28;21286;-63
2024/01/29 00:36:17;;;;;;;2.53;1.23;;;;;;;2.42;75.76;102714.97;5025093;28;20041;-63
2024/01/29 00:38:43;;;;;;;2.45;0.90;;;;;;;2.43;76.20;102716.66;5020840;28;20819;-62
2024/01/29 00:41:08;;;;;;;3.67;1.00;;;;;;;2.41;76.18;102726.13;5023397;28;20033;-62
2024/01/29 00:43:34;;;;;;;3.15;1.13;;;;;;;2.46;75.33;102717.44;5033025;28;20036;-62
2024/01/29 00:45:59;;;;;;;5.13;1.10;;;;;;;2.51;75.44;102717.31;5045564;28;20029;-62
2024/01/29 00:48:25;;;;;;;4.10;1.73;;;;;;;2.44;75.68;102711.47;5028718;28;20082;-63
2024/01/29 00:50:55;;;;;;;7.90;2.17;;;;;;;2.12;77.31;102707.13;5020915;28;20040;-62
2024/01/29 00:53:21;;;;;;;9.10;2.35;;;;;;;1.83;77.82;102720.66;5024942;28;20044;-63
2024/01/29 00:55:47;;;;;;;15.40;4.35;;;;;;;1.70;78.90;102718.38;5022511;28;20044;-62
2024/01/29 00:58:13;;;;;;;12.57;3.67;;;;;;;1.33;80.55;102714.00;5036676;28;20020;-63
2024/01/29 01:00:39;;;;;;;10.85;3.08;;;;;;;1.04;81.83;102723.97;5025135;28;20091;-63
2024/01/29 01:03:08;;;;;;;8.13;2.67;;;;;;;1.19;81.27;102721.13;5021692;28;20392;-62
2024/01/29 01:05:34;;;;;;;11.52;4.32;;;;;;;1.20;80.46;102725.38;5020794;28;20029;-62
2024/01/29 01:08:00;;;;;;;13.02;4.35;;;;;;;0.95;81.76;102717.28;5021602;28;20059;-62
2024/01/29 01:10:26;;;;;;;9.40;2.95;;;;;;;1.08;81.52;102717.91;5021473;28;20053;-63
2024/01/29 01:12:52;;;;;;;13.35;4.15;;;;;;;1.05;82.01;102717.97;5023117;28;20087;-62
2024/01/29 01:15:18;;;;;;;3.25;1.80;;;;;;;1.15;81.28;102719.50;5023191;28;20032;-63
2024/01/29 01:17:43;;;;;;;6.80;2.05;;;;;;;1.29;81.17;102718.34;5020264;28;20043;-62
2024/01/29 01:20:10;;;;;;;2.47;1.10;;;;;;;1.79;78.89;102718.16;5022034;28;21688;-62
2024/01/29 01:22:36;;;;;;;3.83;1.00;;;;;;;2.12;77.16;102706.25;5020342;28;20082;-62
2024/01/29 01:25:02;;;;;;;2.22;0.77;;;;;;;2.24;76.39;102704.25;5022570;28;20041;-63
2024/01/29 01:27:27;;;;;;;5.68;0.70;;;;;;;2.36;75.34;102704.84;5021391;28;20036;-62
2024/01/29 01:29:53;;;;;;;2.97;0.60;;;;;;;2.50;74.38;102702.75;5025824;28;20032;-63
2024/01/29 01:32:18;;;;;;;2.70;0.88;;;;;;;2.45;75.48;102704.59;5020708;28;20053;-63
2024/01/29 01:34:44;;;;;;;4.18;1.55;;;;;;;2.08;76.89;102699.50;5020910;28;20032;-63
2024/01/29 01:37:09;;;;;;;7.13;2.28;;;;;;;1.61;78.35;102704.84;5023599;28;20025;-62
2024/01/29 01:39:35;;;;;;;5.22;1.20;;;;;;;1.71;77.93;102697.78;5022543;28;20609;-63
2024/01/29 01:42:00;;;;;;;4.95;1.52;;;;;;;1.69;78.18;102703.81;5024553;28;20468;-63
2024/01/29 01:44:25;;;;;;;3.58;1.23;;;;;;;1.84;77.24;102700.94;5033723;28;20407;-62
2024/01/29 01:46:51;;;;;;;3.20;0.88;;;;;;;2.16;75.97;102690.72;5039785;28;20025;-63
2024/01/29 01:49:18;;;;;;;3.00;0.85;;;;;;;2.36;74.50;102687.69;5042412;28;20098;-63
2024/01/29 01:51:44;;;;;;;3.60;1.27;;;;;;;2.42;74.32;102686.66;5045134;28;20045;-63
2024/01/29 01:54:11;;;;;;;2.00;0.57;;;;;;;2.45;74.00;102689.16;5020380;28;20040;-63
2024/01/29 01:56:39;;;;;;;1.98;0.70;;;;;;;2.43;74.01;102685.78;5019506;28;20042;-63
2024/01/29 01:59:07;;;;;;;4.38;0.68;;;;;;;2.43;74.34;102690.91;5030020;28;20163;-63
2024/01/29 02:01:32;;;;;;;3.22;0.50;;;;;;;2.32;74.77;102686.91;5023482;28;20094;-62
2024/01/29 02:03:58;;;;;;;2.85;0.57;;;;;;;2.30;75.66;102682.69;5021512;28;20044;-62
2024/01/29 02:06:24;;;;;;;2.20;0.70;;;;;;;2.22;75.17;102677.72;5026037;28;20037;-62
2024/01/29 02:08:50;;;;;;;2.63;0.90;;;;;;;2.26;75.25;102676.78;5017568;28;20054;-63
2024/01/29 02:11:16;;;;;;;4.28;1.08;;;;;;;2.26;75.28;102673.34;5029140;28;20109;-62
2024/01/29 02:13:41;;;;;;;4.05;0.60;;;;;;;2.25;74.94;102676.81;5024655;28;20120;-63
2024/01/29 02:16:07;;;;;;;3.97;0.93;;;;;;;2.26;74.88;102678.50;5030147;28;20381;-63
2024/01/29 02:18:33;;;;;;;2.80;0.80;;;;;;;2.22;75.46;102675.16;5024778;28;21314;-62
2024/01/29 02:20:59;;;;;;;2.78;0.60;;;;;;;2.33;74.69;102680.03;5023921;28;20491;-63
2024/01/29 02:23:25;;;;;;;4.15;0.80;;;;;;;2.46;73.29;102680.56;5026690;28;20041;-63
2024/01/29 02:25:50;;;;;;;0.70;0.30;;;;;;;2.47;73.47;102674.53;5023698;28;20075;-62
2024/01/29 02:28:15;;;;;;;1.67;0.70;;;;;;;2.42;74.15;102678.94;5024697;28;20950;-62
2024/01/29 02:30:41;;;;;;;2.58;0.50;;;;;;;2.41;74.44;102682.41;5030254;28;20029;-63
2024/01/29 02:33:06;;;;;;;3.60;0.80;;;;;;;2.27;75.02;102675.03;5026514;28;20358;-63
2024/01/29 02:35:32;;;;;;;1.73;0.68;;;;;;;2.18;75.40;102676.09;5027290;28;20610;-62
2024/01/29 02:37:58;;;;;;;4.53;0.50;;;;;;;2.11;75.02;102679.69;5029868;28;20179;-63
2024/01/29 02:40:23;;;;;;;3.28;0.63;;;;;;;2.17;74.95;102678.72;5022813;28;20470;-62
2024/01/29 02:42:49;;;;;;;2.08;0.47;;;;;;;2.18;74.16;102683.81;5030467;28;20040;-62
2024/01/29 02:45:14;;;;;;;13.82;0.80;;;;;;;2.16;75.12;102677.03;5037975;28;20068;-63
2024/01/29 02:47:40;;;;;;;5.72;0.75;;;;;;;2.15;74.77;102675.34;5030763;28;20125;-63
2024/01/29 02:50:05;;;;;;;1.92;0.70;;;;;;;2.12;74.88;102675.41;5027838;28;20064;-62
2024/01/29 02:52:31;;;;;;;4.30;0.70;;;;;;;2.05;75.43;102679.84;5028470;28;20597;-62
2024/01/29 02:54:56;;;;;;;2.13;0.50;;;;;;;2.00;75.33;102681.69;5024204;28;20511;-62
2024/01/29 02:57:26;;;;;;;2.95;1.10;;;;;;;2.03;75.25;102671.31;5024070;28;20236;-62
2024/01/29 02:59:51;;;;;;;3.22;0.63;;;;;;;2.05;74.71;102669.56;5030216;28;20389;-63
2024/01/29 03:02:17;;;;;;;2.72;0.80;;;;;;;2.09;74.43;102663.47;5032076;28;20033;-63
2024/01/29 03:04:42;;;;;;;2.22;0.75;;;;;;;2.12;74.82;102665.97;5023105;28;20117;-63
2024/01/29 03:07:08;;;;;;;2.67;0.60;;;;;;;2.15;74.21;102665.06;5030427;28;20037;-62
2024/01/29 03:09:34;;;;;;;2.50;0.68;;;;;;;2.06;74.89;102666.09;5022976;28;20043;-62
2024/01/29 03:11:59;;;;;;;3.70;0.60;;;;;;;1.99;75.27;102659.41;5042564;28;20029;-63
2024/01/29 03:14:25;;;;;;;2.70;0.77;;;;;;;2.00;75.05;102666.25;5035144;28;20060;-62
2024/01/29 03:16:52;;;;;;;2.40;0.82;;;;;;;2.05;74.29;102667.00;5026788;28;20025;-65
2024/01/29 03:19:18;;;;;;;2.47;0.63;;;;;;;2.07;73.80;102669.53;5023448;28;20488;-63
2024/01/29 03:21:43;;;;;;;2.78;0.88;;;;;;;2.09;73.95;102660.91;5021452;28;20084;-63
2024/01/29 03:24:09;;;;;;;1.42;0.52;;;;;;;2.00;74.92;102667.09;5024294;28;20489;-62
2024/01/29 03:26:34;;;;;;;2.45;0.63;;;;;;;1.94;74.71;102666.38;5022422;28;20686;-62
2024/01/29 03:29:00;;;;;;;4.72;1.00;;;;;;;1.90;74.77;102664.78;5025853;28;20055;-63
2024/01/29 03:31:25;;;;;;;2.67;0.82;;;;;;;1.93;75.01;102664.69;5021419;28;20056;-63
2024/01/29 03:33:51;;;;;;;2.38;0.65;;;;;;;1.99;74.69;102664.56;5027908;28;20048;-63
2024/01/29 03:36:16;;;;;;;2.42;0.68;;;;;;;1.95;74.81;102661.22;5026270;28;20033;-62
2024/01/29 03:38:42;;;;;;;3.90;0.88;;;;;;;1.97;74.86;102663.75;5026806;28;20025;-63
2024/01/29 03:41:07;;;;;;;3.60;0.60;;;;;;;1.91;75.06;102651.03;5027435;28;20057;-63
2024/01/29 03:43:33;;;;;;;4.50;1.02;;;;;;;1.86;75.41;102647.75;5032380;28;20108;-63
2024/01/29 03:45:58;;;;;;;4.18;0.50;;;;;;;1.87;74.87;102644.31;5046886;28;20029;-62
2024/01/29 03:48:24;;;;;;;2.53;0.70;;;;;;;1.83;75.71;102648.66;5034623;28;20091;-63
2024/01/29 03:50:49;;;;;;;1.88;0.50;;;;;;;1.83;75.13;102643.53;5022308;28;20526;-63
2024/01/29 03:53:14;;;;;;;4.78;0.70;;;;;;;1.86;74.75;102645.19;5022831;28;20292;-62
2024/01/29 03:55:41;;;;;;;2.65;0.70;;;;;;;1.85;74.49;102646.06;5025338;28;20096;-62
2024/01/29 03:58:07;;;;;;;3.00;0.57;;;;;;;1.85;74.89;102646.06;5034450;28;20040;-62
2024/01/29 04:00:32;;;;;;;2.95;0.60;;;;;;;1.79;75.02;102643.63;5027160;28;20037;-62
2024/01/29 04:02:58;;;;;;;3.25;0.65;;;;;;;1.77;74.90;102647.97;5022627;28;20033;-63
2024/01/29 04:05:24;;;;;;;2.85;0.80;;;;;;;1.77;75.53;102647.97;5026464;28;20036;-63
2024/01/29 04:07:50;;;;;;;5.25;0.65;;;;;;;1.71;75.26;102648.94;5027254;28;20045;-63
2024/01/29 04:10:16;;;;;;;2.47;0.60;;;;;;;1.73;74.72;102642.03;5025029;28;20029;-63
2024/01/29 04:12:42;;;;;;;4.15;0.90;;;;;;;1.85;73.69;102640.94;5022454;28;20037;-62
2024/01/29 04:15:08;;;;;;;4.03;0.45;;;;;;;1.83;74.16;102642.69;5022846;28;20346;-63
2024/01/29 04:17:33;;;;;;;1.90;0.60;;;;;;;1.84;74.06;102645.22;5021542;28;20148;-63
2024/01/29 04:19:59;;;;;;;2.70;0.90;;;;;;;1.77;74.67;102638.53;5027114;28;20029;-62
2024/01/29 04:22:25;;;;;;;2.83;0.40;;;;;;;1.74;74.94;102645.47;5021739;28;20090;-63
2024/01/29 04:24:51;;;;;;;4.63;0.43;;;;;;;1.76;74.11;102639.41;5025111;28;21860;-63
2024/01/29 04:27:16;;;;;;;1.75;0.73;;;;;;;1.83;73.62;102634.97;5022235;28;21834;-62
2024/01/29 04:29:42;;;;;;;5.32;0.95;;;;;;;1.79;74.06;102641.91;5020697;28;20043;-63
2024/01/29 04:32:07;;;;;;;2.47;0.75;;;;;;;1.74;74.26;102632.63;5020502;28;20153;-63
2024/01/29 04:34:33;;;;;;;2.63;0.65;;;;;;;1.73;73.96;102636.91;5026870;28;20455;-63
2024/01/29 04:36:58;;;;;;;6.00;0.70;;;;;;;1.74;73.86;102622.34;5024938;28;20044;-62
2024/01/29 04:39:23;;;;;;;3.30;0.55;;;;;;;1.78;73.57;102629.09;5023117;28;20109;-63
2024/01/29 04:41:49;;;;;;;2.58;0.30;;;;;;;1.82;73.63;102628.13;5021185;28;21155;-62
2024/01/29 04:44:17;;;;;;;1.50;0.50;;;;;;;1.82;73.02;102625.56;5031246;28;20468;-62
2024/01/29 04:46:42;;;;;;;5.03;0.88;;;;;;;1.77;73.83;102624.84;5048660;28;20047;-63
2024/01/29 04:49:08;;;;;;;7.90;0.65;;;;;;;1.40;74.74;102620.53;5036250;28;20029;-62
2024/01/29 04:51:34;;;;;;;2.13;0.70;;;;;;;1.34;74.92;102625.81;5024635;28;20040;-62
2024/01/29 04:53:59;;;;;;;1.35;0.65;;;;;;;1.41;74.84;102624.78;5021394;28;20028;-63
2024/01/29 04:56:25;;;;;;;2.67;0.90;;;;;;;1.46;74.41;102627.22;5021436;28;20029;-62
2024/01/29 04:58:50;;;;;;;5.07;0.60;;;;;;;1.52;74.52;102630.50;5031991;28;20036;-63
2024/01/29 05:01:16;;;;;;;3.55;0.68;;;;;;;1.61;74.49;102638.03;5022716;28;20037;-63
2024/01/29 05:03:42;;;;;;;2.67;0.85;;;;;;;1.61;74.57;102632.88;5038160;28;20550;-63
2024/01/29 05:06:07;;;;;;;2.30;0.65;;;;;;;1.57;74.75;102626.13;5022909;28;20087;-63
2024/01/29 05:08:33;;;;;;;4.03;1.10;;;;;;;1.52;74.65;102633.09;5020620;28;20578;-62
2024/01/29 05:10:58;;;;;;;9.40;2.67;;;;;;;1.51;75.03;102633.97;5026690;28;20039;-62
2024/01/29 05:13:24;;;;;;;7.45;2.08;;;;;;;1.58;74.11;102640.66;5022997;28;20048;-62
2024/01/29 05:15:49;;;;;;;1.90;0.57;;;;;;;1.61;74.51;102638.03;5021300;28;20036;-63
2024/01/29 05:18:15;;;;;;;1.83;0.73;;;;;;;1.58;74.32;102632.09;5021471;28;20073;-62
2024/01/29 05:20:40;;;;;;;2.95;1.23;;;;;;;1.54;74.61;102636.47;5031124;28;20432;-63
2024/01/29 05:23:06;;;;;;;1.23;0.52;;;;;;;1.47;74.68;102645.19;5021542;28;20033;-62
2024/01/29 05:25:32;;;;;;;1.80;0.43;;;;;;;1.46;74.82;102640.06;5022159;28;20036;-62
2024/01/29 05:27:58;;;;;;;3.60;0.52;;;;;;;1.51;74.47;102643.41;5025231;28;20079;-63
2024/01/29 05:30:24;;;;;;;3.00;0.68;;;;;;;1.51;74.56;102645.97;5044875;28;20065;-62
2024/01/29 05:32:49;;;;;;;1.33;0.52;;;;;;;1.55;73.99;102648.44;5043924;28;20049;-63
2024/01/29 05:35:15;;;;;;;5.53;0.75;;;;;;;1.59;73.43;102644.91;5041676;28;20086;-63
2024/01/29 05:37:40;;;;;;;3.88;0.73;;;;;;;1.52;73.56;102653.63;5046769;28;20142;-62
2024/01/29 05:40:07;;;;;;;6.18;0.90;;;;;;;1.47;73.97;102649.47;5048850;28;20056;-62
2024/01/29 05:42:32;;;;;;;9.43;1.02;;;;;;;1.42;74.93;102652.13;5048039;28;20425;-62
2024/01/29 05:44:58;;;;;;;4.95;0.88;;;;;;;1.26;75.00;102658.50;5051223;28;20104;-62
2024/01/29 05:47:23;;;;;;;2.95;0.80;;;;;;;1.21;75.10;102663.72;5052626;28;20044;-62
2024/01/29 05:49:49;;;;;;;2.45;0.75;;;;;;;1.29;74.61;102661.00;5052242;28;20388;-63
2024/01/29 05:52:15;;;;;;;3.28;1.13;;;;;;;1.17;75.57;102667.22;5052547;28;20484;-63
2024/01/29 05:54:40;;;;;;;5.88;1.40;;;;;;;0.98;76.10;102671.03;5051842;28;20127;-64
2024/01/29 05:57:10;;;;;;;2.25;0.85;;;;;;;0.91;76.99;102666.91;5052388;28;20029;-63
2024/01/29 05:59:35;;;;;;;4.82;1.13;;;;;;;0.95;76.28;102668.50;5050998;28;20045;-63
2024/01/29 06:02:00;;;;;;;1.15;0.70;;;;;;;1.09;75.73;102668.25;5052289;28;20461;-63
2024/01/29 06:04:26;;;;;;;3.60;0.77;;;;;;;1.17;76.28;102671.53;5052637;28;20052;-63
2024/01/29 06:06:51;;;;;;;3.33;0.70;;;;;;;1.15;75.78;102663.84;5052286;28;20071;-63
2024/01/29 06:09:17;;;;;;;3.70;0.95;;;;;;;1.17;76.08;102663.81;5051564;28;20074;-63
2024/01/29 06:11:42;;;;;;;2.10;0.73;;;;;;;1.18;75.65;102668.06;5051894;28;20083;-63
2024/01/29 06:14:07;;;;;;;6.80;0.40;;;;;;;1.26;74.98;102666.19;5051781;28;20041;-63
2024/01/29 06:16:33;;;;;;;2.33;0.50;;;;;;;1.32;74.91;102666.06;5050078;28;20146;-63
2024/01/29 06:18:58;;;;;;;4.00;0.98;;;;;;;1.28;75.38;102669.59;5056084;28;20143;-63
2024/01/29 06:21:24;;;;;;;4.82;1.10;;;;;;;1.26;74.89;102668.78;5057903;28;20043;-63
2024/01/29 06:23:49;;;;;;;4.80;0.88;;;;;;;1.29;75.20;102668.72;5051713;28;20365;-63
2024/01/29 06:26:15;;;;;;;3.20;0.47;;;;;;;1.30;74.53;102672.97;5055625;28;20428;-62
2024/01/29 06:28:44;;;;;;;3.47;0.90;;;;;;;1.35;74.18;102666.00;5050775;28;20481;-63
2024/01/29 06:31:10;;;;;;;7.47;0.98;;;;;;;1.37;73.93;102671.97;5048821;28;20029;-63
2024/01/29 06:33:35;;;;;;;4.65;0.57;;;;;;;1.41;74.07;102668.47;5047352;28;20557;-63
2024/01/29 06:36:05;;;;;;;9.20;1.67;;;;;;;1.41;73.96;102670.19;5040966;28;20033;-63
2024/01/29 06:38:30;;;;;;;6.55;1.83;;;;;;;1.38;74.18;102675.38;5044590;28;20470;-63
2024/01/29 06:40:57;;;;;;;4.80;0.77;;;;;;;1.37;74.11;102663.41;5051935;28;20032;-63
2024/01/29 06:43:22;;;;;;;4.95;1.90;;;;;;;1.30;74.67;102673.81;5052501;28;20032;-62
2024/01/29 06:45:48;;;;;;;3.63;0.73;;;;;;;1.32;74.75;102674.63;5048952;28;20550;-63
2024/01/29 06:48:13;;;;;;;5.10;0.90;;;;;;;1.37;73.95;102674.53;5057701;28;20029;-63
2024/01/29 06:50:40;;;;;;;3.63;0.70;;;;;;;1.32;74.36;102671.22;5053351;28;20033;-63
2024/01/29 06:53:05;;;;;;;2.92;0.73;;;;;;;1.27;74.77;102673.03;5051336;28;20353;-63
2024/01/29 06:55:31;;;;;;;2.47;1.05;;;;;;;1.37;74.24;102677.09;5050822;28;20033;-62
2024/01/29 06:57:56;;;;;;;4.35;0.88;;;;;;;1.40;73.97;102679.63;5050286;28;20025;-63
2024/01/29 07:00:22;;;;;;;3.50;0.80;;;;;;;1.46;73.58;102684.59;5048555;28;20036;-63
2024/01/29 07:02:48;;;;;;;2.95;0.50;;;;;;;1.43;74.13;102687.22;5048689;28;20493;-63
2024/01/29 07:05:13;;;;;;;3.25;0.70;;;;;;;1.47;74.09;102685.44;5047262;28;20050;-62
2024/01/29 07:07:39;;;;;;;2.85;0.65;;;;;;;1.54;73.66;102687.00;5054789;28;20029;-63
2024/01/29 07:10:05;;;;;;;1.70;0.40;;;;;;;1.67;72.80;102678.16;5050512;28;20029;-62
2024/01/29 07:12:30;;;;;;;6.03;0.90;;;;;;;1.72;72.27;102676.34;5054742;28;20037;-63
2024/01/29 07:14:56;;;;;;;3.17;0.88;;;;;;;1.73;72.34;102677.19;5050966;28;20072;-63
2024/01/29 07:17:21;;;;;;;12.82;0.77;;;;;;;1.73;72.52;102679.75;5050439;28;20036;-62
2024/01/29 07:19:48;;;;;;;2.45;0.90;;;;;;;1.77;71.85;102677.09;5049515;28;20052;-62
2024/01/29 07:22:18;;;;;;;3.70;0.82;;;;;;;1.79;72.50;102680.47;5051013;28;20035;-63
2024/01/29 07:24:48;;;;;;;4.32;1.02;;;;;;;1.84;71.90;102680.38;5050027;28;20021;-63
2024/01/29 07:27:17;;;;;;;3.10;0.47;;;;;;;1.89;71.96;102683.69;5049903;28;20443;-63
2024/01/29 07:29:43;;;;;;;5.28;0.68;;;;;;;1.94;71.41;102684.38;5051710;28;20021;-62
2024/01/29 07:32:09;;;;;;;4.30;1.15;;;;;;;1.98;71.25;102678.28;5048341;28;20142;-63
2024/01/29 07:34:34;;;;;;;1.40;0.80;;;;;;;2.05;71.70;102674.69;5049001;28;20037;-62
2024/01/29 07:37:00;;;;;;;1.30;0.50;;;;;;;2.07;71.61;102688.38;5052850;28;20428;-62
2024/01/29 07:39:25;;;;;;;2.05;0.50;;;;;;;2.09;71.59;102685.75;5048586;28;20036;-62
2024/01/29 07:41:51;;;;;;;1.75;0.45;;;;;;;2.10;71.28;102679.75;5050607;28;20037;-62
2024/01/29 07:44:16;;;;;;;4.32;0.75;;;;;;;2.12;71.30;102683.97;5048436;28;20043;-62
2024/01/29 07:46:42;;;;;;;1.63;0.60;;;;;;;2.16;71.18;102683.00;5043462;28;20020;-62
2024/01/29 07:49:08;;;;;;;1.90;0.60;;;;;;;2.19;70.84;102682.09;5043742;28;20107;-62
2024/01/29 07:51:33;;;;;;;2.20;0.70;;;;;;;2.28;70.32;102687.88;5045215;28;20029;-62
2024/01/29 07:53:59;;;;;;;1.60;0.50;;;;;;;2.32;70.57;102686.91;5046731;28;20025;-62
2024/01/29 07:56:24;;;;;;;2.85;0.68;;;;;;;2.37;70.33;102691.06;5050728;28;20033;-62
2024/01/29 07:58:50;;;;;;;5.22;1.23;;;;;;;2.43;69.46;102690.91;5050187;28;20029;-62
2024/01/29 08:01:15;;;;;;;4.93;1.05;;;;;;;2.52;68.76;102698.41;5045288;28;20044;-62
2024/01/29 08:03:42;;;;;;;3.78;1.35;;;;;;;2.58;69.00;102695.69;5046790;28;20040;-62
2024/01/29 08:06:08;;;;;;;3.17;0.90;;;;;;;2.69;68.06;102688.53;5041624;28;20120;-62
2024/01/29 08:08:36;;;;;;;1.70;0.57;;;;;;;2.76;68.29;102691.81;5047073;28;20128;-62
2024/01/29 08:11:01;;;;;;;6.20;0.65;;;;;;;2.86;68.56;102688.06;5050535;28;20025;-62
2024/01/29 08:13:27;;;;;;;1.52;0.50;;;;;;;2.84;67.49;102693.28;5048164;28;20133;-62
2024/01/29 08:15:53;;;;;;;1.70;0.57;;;;;;;2.89;67.57;102696.56;5050031;28;20123;-62
2024/01/29 08:18:19;;;;;;;3.25;0.65;;;;;;;2.95;67.77;102700.72;5046491;28;20064;-62
2024/01/29 08:20:44;;;;;;;1.00;0.70;;;;;;;2.99;67.79;102700.59;5048971;28;20071;-62
2024/01/29 08:23:10;;;;;;;2.63;0.98;;;;;;;3.11;66.07;102701.16;5049745;28;20091;-62
2024/01/29 08:25:36;;;;;;;1.25;0.22;;;;;;;3.17;66.99;102700.97;5043331;28;20083;-62
2024/01/29 08:28:01;;;;;;;1.50;0.35;;;;;;;3.30;65.88;102692.88;5049914;28;20068;-62
2024/01/29 08:30:27;;;;;;;2.45;0.57;;;;;;;3.42;66.12;102696.81;5050136;28;20072;-62
2024/01/29 08:32:52;;;;;;;1.50;0.60;;;;;;;3.57;65.79;102700.69;5048218;28;20049;-62
2024/01/29 08:35:18;;;;;;;2.25;0.50;;;;;;;3.63;65.10;102695.34;5048184;28;20453;-62
2024/01/29 08:37:44;;;;;;;2.80;0.68;;;;;;;3.66;65.50;102701.25;5049213;28;20456;-63
2024/01/29 08:40:10;;;;;;;1.77;0.50;;;;;;;3.64;65.45;102700.44;5048769;28;20056;-62
2024/01/29 08:42:36;;;;;;;2.35;0.40;;;;;;;3.66;65.27;102708.13;5048053;28;20511;-62
2024/01/29 08:45:03;;;;;;;1.63;0.60;;;;;;;3.75;65.20;102705.28;5048046;28;20036;-62
2024/01/29 08:47:28;;;;;;;1.48;0.43;;;;;;;3.84;64.63;102705.00;5048889;28;20484;-62
2024/01/29 08:49:53;;;;;;;1.52;0.30;;;;;;;3.97;64.24;102715.78;5049711;28;20036;-62
2024/01/29 08:52:19;;;;;;;2.40;0.40;;;;;;;4.00;62.97;102720.84;5049500;28;20033;-62
2024/01/29 08:54:44;;;;;;;2.13;0.68;;;;;;;4.03;63.70;102707.00;5049178;28;20075;-62
2024/01/29 08:57:11;;;;;;;1.65;0.40;;;;;;;4.08;63.50;102720.59;5045658;28;20029;-62
2024/01/29 08:59:38;;;;;;;3.05;0.40;;;;;;;4.13;64.31;102722.16;5048812;28;20036;-62
2024/01/29 09:02:04;;;;;;;2.47;0.45;;;;;;;4.26;63.92;102717.44;5052435;28;20420;-62
2024/01/29 09:04:29;;;;;;;1.52;0.55;;;;;;;4.35;63.34;102719.72;5044718;28;20041;-62
2024/01/29 09:06:54;;;;;;;1.95;0.50;;;;;;;4.41;62.98;102723.84;5046697;28;20444;-62
2024/01/29 09:09:20;;;;;;;3.17;0.38;;;;;;;4.50;62.48;102715.78;5048942;28;20029;-62
2024/01/29 09:11:46;;;;;;;1.27;0.40;;;;;;;4.59;63.04;102718.91;5046957;28;20032;-62
2024/01/29 09:14:12;;;;;;;1.77;0.60;;;;;;;4.62;63.28;102720.56;5048911;28;20032;-62
2024/01/29 09:16:38;;;;;;;1.35;0.60;;;;;;;4.66;63.01;102717.81;5049035;28;20429;-63
2024/01/29 09:19:04;;;;;;;1.13;0.40;;;;;;;4.77;62.75;102720.00;5046351;28;20029;-62
2024/01/29 09:21:34;;;;;;;1.50;0.35;;;;;;;4.86;63.08;102732.63;5046440;28;20028;-63
2024/01/29 09:24:00;;;;;;;1.23;0.30;;;;;;;5.07;61.18;102717.28;5043895;28;20037;-62
2024/01/29 09:26:25;;;;;;;4.90;0.82;;;;;;;5.22;61.74;102727.03;5048926;28;20182;-63
2024/01/29 09:28:51;;;;;;;3.55;0.85;;;;;;;5.23;61.44;102723.56;5043488;28;20024;-63
2024/01/29 09:31:16;;;;;;;8.50;0.90;;;;;;;5.29;61.27;102728.50;5054143;28;20147;-63
2024/01/29 09:33:42;;;;;;;5.85;1.58;;;;;;;5.41;60.68;102728.06;5046271;28;20025;-63
2024/01/29 09:36:07;;;;;;;1.63;0.75;;;;;;;5.44;60.49;102732.28;5054387;28;20032;-63
2024/01/29 09:38:32;;;;;;;3.22;1.10;;;;;;;5.55;61.19;102727.56;5048421;28;20393;-62
2024/01/29 09:40:58;;;;;;;4.38;0.82;;;;;;;5.65;59.96;102728.91;5042423;28;20033;-62
2024/01/29 09:43:25;;;;;;;2.10;0.40;;;;;;;5.83;59.87;102727.34;5043146;28;20037;-63
2024/01/29 09:45:52;;;;;;;1.13;0.32;;;;;;;5.84;60.88;102727.28;5053896;28;20338;-63
2024/01/29 09:48:18;;;;;;;2.25;0.50;;;;;;;5.98;59.31;102722.47;5052504;28;20082;-63
2024/01/29 09:50:47;;;;;;;2.53;0.65;;;;;;;6.20;58.33;102717.25;5045542;28;20432;-62
2024/01/29 09:53:17;;;;;;;2.17;0.52;;;;;;;6.42;58.69;102713.81;5043330;28;20564;-62
2024/01/29 09:55:43;;;;;;;4.38;1.00;;;;;;;6.36;60.39;102714.06;5038845;28;20044;-63
2024/01/29 09:58:08;;;;;;;5.75;0.68;;;;;;;6.36;59.83;102709.72;5041841;28;20040;-63
2024/01/29 10:00:34;;;;;;;2.88;0.65;;;;;;;6.28;59.24;102706.59;5036745;28;20396;-63
2024/01/29 10:03:04;;;;;;;3.45;0.88;;;;;;;6.54;59.41;102708.13;5041791;28;20049;-62
2024/01/29 10:05:30;;;;;;;3.05;0.50;;;;;;;6.51;59.05;102703.94;5045422;28;20476;-62
2024/01/29 10:07:58;;;;;;;2.38;0.55;;;;;;;6.66;58.79;102699.81;5048656;28;20025;-63
2024/01/29 10:10:27;;;;;;;2.60;0.80;;;;;;;6.63;57.46;102695.63;5048725;28;20040;-63
2024/01/29 10:13:08;;;;;;;2.30;0.40;;;;;;;6.66;57.60;102692.06;5047594;28;20029;-63
2024/01/29 10:15:34;;;;;;;1.55;0.40;;;;;;;6.82;58.09;102692.25;5044242;28;20094;-63
2024/01/29 10:18:00;;;;;;;2.42;0.40;;;;;;;6.87;58.48;102682.53;5049264;28;20032;-63
2024/01/29 10:20:25;;;;;;;0.95;0.47;;;;;;;6.89;56.17;102684.16;5048713;28;20033;-63
2024/01/29 10:23:01;;;;;;;1.73;0.40;;;;;;;6.87;57.03;102678.19;5047593;28;20032;-63
2024/01/29 10:25:29;;;;;;;1.40;0.30;;;;;;;6.85;58.64;102671.38;5048431;28;20082;-62
2024/01/29 10:28:04;;;;;;;1.98;0.50;;;;;;;6.84;57.93;102667.94;5046606;28;20153;-63
2024/01/29 10:30:29;;;;;;;2.00;0.40;;;;;;;6.88;59.14;102668.66;5049392;28;20124;-62
2024/01/29 10:32:55;;;;;;;4.32;0.40;;;;;;;6.95;57.26;102663.16;5051159;28;20119;-62
2024/01/29 10:35:20;;;;;;;3.10;0.50;;;;;;;7.15;56.80;102658.81;5052536;28;20029;-62
2024/01/29 10:37:47;;;;;;;1.55;0.40;;;;;;;7.17;55.71;102659.56;5051086;28;20049;-62
2024/01/29 10:40:15;;;;;;;4.25;0.57;;;;;;;7.23;58.19;102651.53;5047282;28;20036;-62
2024/01/29 10:42:43;;;;;;;3.60;0.30;;;;;;;7.22;56.23;102649.84;5053629;28;20112;-63
2024/01/29 10:45:14;;;;;;;2.92;0.20;;;;;;;7.27;58.93;102653.91;5047160;28;20469;-63
2024/01/29 10:47:49;;;;;;;2.22;0.50;;;;;;;7.21;58.42;102642.97;5050043;28;20029;-62
2024/01/29 10:50:18;;;;;;;1.20;0.37;;;;;;;7.40;58.40;102645.56;5061211;28;20098;-63
2024/01/29 10:52:48;;;;;;;1.67;0.40;;;;;;;7.26;60.42;102646.19;5051734;28;20101;-63
2024/01/29 10:55:15;;;;;;;2.00;0.43;;;;;;;7.13;60.10;102640.72;5048257;28;20045;-62
2024/01/29 10:57:45;;;;;;;4.85;0.63;;;;;;;7.29;58.70;102638.28;5049851;28;20029;-62
2024/01/29 11:00:11;;;;;;;2.15;0.52;;;;;;;7.70;57.91;102641.53;5050758;28;20063;-62
2024/01/29 11:02:39;;;;;;;1.90;0.40;;;;;;;8.01;55.70;102645.25;5046424;28;20468;-62
2024/01/29 11:05:06;;;;;;;1.30;0.40;;;;;;;8.14;54.05;102639.34;5050958;28;20055;-63
2024/01/29 11:07:33;;;;;;;2.58;0.40;;;;;;;8.07;55.58;102639.72;5049086;28;20355;-63
2024/01/29 11:10:10;;;;;;;4.88;0.60;;;;;;;8.09;57.13;102630.13;5051881;28;20028;-63
2024/01/29 11:12:38;;;;;;;3.90;0.98;;;;;;;8.13;55.75;102635.06;5047795;28;20056;-63
2024/01/29 11:15:05;;;;;;;3.70;0.68;;;;;;;8.11;57.62;102625.69;5049719;28;20100;-62
2024/01/29 11:17:30;;;;;;;3.53;0.50;;;;;;;8.16;56.19;102626.31;5049298;28;20029;-63
2024/01/29 11:20:01;;;;;;;5.90;0.32;;;;;;;8.34;56.97;102619.38;5051544;28;20056;-62
2024/01/29 11:22:50;;;;;;;3.15;0.40;;;;;;;8.38;54.44;102610.53;5050889;28;20037;-63
2024/01/29 11:25:17;;;;;;;2.20;0.32;;;;;;;8.35;58.58;102615.88;5048652;28;20033;-63
2024/01/29 11:27:43;;;;;;;2.22;0.43;;;;;;;8.27;58.37;102611.03;5048156;28;20031;-62
2024/01/29 11:30:12;;;;;;;1.52;0.40;;;;;;;8.20;59.01;102615.69;5047766;28;20025;-63